sensor_id;sensor_type;location;lat;lon;timestamp;P1;durP1;ratioP1;P2;durP2;ratioP2
5295;SDS011;2670;42.720;23.336;2023-04-16T00:01:00;17.03;;;8.40;;
5295;SDS011;2670;42.720;23.336;2023-04-16T00:03:27;10.30;;;6.50;;
5295;SDS011;2670;42.720;23.336;2023-04-16T00:05:54;20.53;;;10.63;;
5295;SDS011;2670;42.720;23.336;2023-04-16T00:08:21;20.80;;;10.23;;
5295;SDS011;2670;42.720;23.336;2023-04-16T00:10:48;23.10;;;11.93;;
5295;SDS011;2670;42.720;23.336;2023-04-16T00:13:17;22.07;;;12.30;;
5295;SDS011;2670;42.720;23.336;2023-04-16T00:15:43;22.80;;;12.50;;
5295;SDS011;2670;42.720;23.336;2023-04-16T00:18:10;23.67;;;12.10;;
5295;SDS011;2670;42.720;23.336;2023-04-16T00:20:37;21.70;;;9.40;;
5295;SDS011;2670;42.720;23.336;2023-04-16T00:23:03;13.10;;;7.47;;
5295;SDS011;2670;42.720;23.336;2023-04-16T00:25:30;10.40;;;6.27;;
5295;SDS011;2670;42.720;23.336;2023-04-16T00:27:57;11.50;;;5.80;;
5295;SDS011;2670;42.720;23.336;2023-04-16T00:30:25;11.03;;;6.30;;
5295;SDS011;2670;42.720;23.336;2023-04-16T00:32:52;18.23;;;8.03;;
5295;SDS011;2670;42.720;23.336;2023-04-16T00:35:18;18.00;;;9.13;;
5295;SDS011;2670;42.720;23.336;2023-04-16T00:37:45;16.50;;;7.47;;
5295;SDS011;2670;42.720;23.336;2023-04-16T00:40:12;15.37;;;7.43;;
5295;SDS011;2670;42.720;23.336;2023-04-16T00:42:39;16.47;;;7.83;;
5295;SDS011;2670;42.720;23.336;2023-04-16T00:45:06;11.00;;;6.73;;
5295;SDS011;2670;42.720;23.336;2023-04-16T00:47:35;11.53;;;5.57;;
5295;SDS011;2670;42.720;23.336;2023-04-16T00:50:02;15.13;;;5.50;;
5295;SDS011;2670;42.720;23.336;2023-04-16T00:52:29;10.60;;;4.30;;
5295;SDS011;2670;42.720;23.336;2023-04-16T00:54:57;15.30;;;5.30;;
5295;SDS011;2670;42.720;23.336;2023-04-16T00:57:24;10.43;;;4.50;;
5295;SDS011;2670;42.720;23.336;2023-04-16T00:59:52;12.30;;;4.17;;
5295;SDS011;2670;42.720;23.336;2023-04-16T01:02:19;11.20;;;6.53;;
5295;SDS011;2670;42.720;23.336;2023-04-16T01:04:48;92.03;;;35.93;;
5295;SDS011;2670;42.720;23.336;2023-04-16T01:07:14;45.00;;;17.50;;
5295;SDS011;2670;42.720;23.336;2023-04-16T01:09:41;13.90;;;6.83;;
5295;SDS011;2670;42.720;23.336;2023-04-16T01:12:08;15.63;;;9.70;;
5295;SDS011;2670;42.720;23.336;2023-04-16T01:14:34;20.20;;;12.87;;
5295;SDS011;2670;42.720;23.336;2023-04-16T01:17:01;16.10;;;9.10;;
5295;SDS011;2670;42.720;23.336;2023-04-16T01:19:28;10.90;;;5.50;;
5295;SDS011;2670;42.720;23.336;2023-04-16T01:21:57;10.10;;;4.80;;
5295;SDS011;2670;42.720;23.336;2023-04-16T01:24:24;8.60;;;4.20;;
5295;SDS011;2670;42.720;23.336;2023-04-16T01:26:51;11.47;;;4.50;;
5295;SDS011;2670;42.720;23.336;2023-04-16T01:29:17;8.63;;;4.47;;
5295;SDS011;2670;42.720;23.336;2023-04-16T01:31:44;7.30;;;3.80;;
5295;SDS011;2670;42.720;23.336;2023-04-16T01:34:11;6.67;;;4.07;;
5295;SDS011;2670;42.720;23.336;2023-04-16T01:36:38;7.67;;;4.50;;
5295;SDS011;2670;42.720;23.336;2023-04-16T01:39:06;6.47;;;3.90;;
5295;SDS011;2670;42.720;23.336;2023-04-16T01:41:35;12.77;;;4.73;;
5295;SDS011;2670;42.720;23.336;2023-04-16T01:44:02;8.80;;;4.43;;
5295;SDS011;2670;42.720;23.336;2023-04-16T01:46:30;13.60;;;4.27;;
5295;SDS011;2670;42.720;23.336;2023-04-16T01:48:58;11.40;;;5.20;;
5295;SDS011;2670;42.720;23.336;2023-04-16T01:51:25;8.33;;;4.73;;
5295;SDS011;2670;42.720;23.336;2023-04-16T01:53:52;8.83;;;4.40;;
5295;SDS011;2670;42.720;23.336;2023-04-16T01:56:21;12.47;;;5.00;;
5295;SDS011;2670;42.720;23.336;2023-04-16T01:58:48;9.73;;;4.70;;
5295;SDS011;2670;42.720;23.336;2023-04-16T02:01:15;7.57;;;4.10;;
5295;SDS011;2670;42.720;23.336;2023-04-16T02:03:41;6.07;;;3.90;;
5295;SDS011;2670;42.720;23.336;2023-04-16T02:06:08;6.47;;;4.40;;
5295;SDS011;2670;42.720;23.336;2023-04-16T02:08:35;7.73;;;3.50;;
5295;SDS011;2670;42.720;23.336;2023-04-16T02:11:02;11.23;;;4.23;;
5295;SDS011;2670;42.720;23.336;2023-04-16T02:13:30;11.93;;;4.90;;
5295;SDS011;2670;42.720;23.336;2023-04-16T02:15:56;12.33;;;3.90;;
5295;SDS011;2670;42.720;23.336;2023-04-16T02:18:23;5.40;;;3.93;;
5295;SDS011;2670;42.720;23.336;2023-04-16T02:20:50;6.70;;;4.20;;
5295;SDS011;2670;42.720;23.336;2023-04-16T02:23:16;11.10;;;4.27;;
5295;SDS011;2670;42.720;23.336;2023-04-16T02:25:44;11.27;;;4.90;;
5295;SDS011;2670;42.720;23.336;2023-04-16T02:28:12;14.43;;;4.27;;
5295;SDS011;2670;42.720;23.336;2023-04-16T02:30:41;8.57;;;3.90;;
5295;SDS011;2670;42.720;23.336;2023-04-16T02:33:08;9.73;;;4.63;;
5295;SDS011;2670;42.720;23.336;2023-04-16T02:35:36;16.27;;;4.60;;
5295;SDS011;2670;42.720;23.336;2023-04-16T02:38:04;10.13;;;5.00;;
5295;SDS011;2670;42.720;23.336;2023-04-16T02:40:31;15.70;;;5.37;;
5295;SDS011;2670;42.720;23.336;2023-04-16T02:42:58;13.57;;;6.00;;
5295;SDS011;2670;42.720;23.336;2023-04-16T02:45:25;11.93;;;6.50;;
5295;SDS011;2670;42.720;23.336;2023-04-16T02:47:53;15.50;;;6.90;;
5295;SDS011;2670;42.720;23.336;2023-04-16T02:50:20;9.83;;;5.60;;
5295;SDS011;2670;42.720;23.336;2023-04-16T02:52:46;14.10;;;8.07;;
5295;SDS011;2670;42.720;23.336;2023-04-16T02:55:13;18.50;;;8.77;;
5295;SDS011;2670;42.720;23.336;2023-04-16T02:57:40;16.07;;;7.10;;
5295;SDS011;2670;42.720;23.336;2023-04-16T03:00:07;11.80;;;6.17;;
5295;SDS011;2670;42.720;23.336;2023-04-16T03:02:34;12.40;;;6.83;;
5295;SDS011;2670;42.720;23.336;2023-04-16T03:05:02;15.00;;;6.17;;
5295;SDS011;2670;42.720;23.336;2023-04-16T03:07:30;15.30;;;6.33;;
5295;SDS011;2670;42.720;23.336;2023-04-16T03:09:56;12.40;;;6.87;;
5295;SDS011;2670;42.720;23.336;2023-04-16T03:12:23;14.97;;;7.80;;
5295;SDS011;2670;42.720;23.336;2023-04-16T03:14:50;11.23;;;6.87;;
5295;SDS011;2670;42.720;23.336;2023-04-16T03:17:16;14.23;;;7.63;;
5295;SDS011;2670;42.720;23.336;2023-04-16T03:19:43;13.27;;;7.27;;
5295;SDS011;2670;42.720;23.336;2023-04-16T03:22:11;24.70;;;7.60;;
5295;SDS011;2670;42.720;23.336;2023-04-16T03:24:38;12.87;;;6.13;;
5295;SDS011;2670;42.720;23.336;2023-04-16T03:27:05;12.20;;;7.13;;
5295;SDS011;2670;42.720;23.336;2023-04-16T03:29:31;14.50;;;6.70;;
5295;SDS011;2670;42.720;23.336;2023-04-16T03:31:58;10.90;;;5.83;;
5295;SDS011;2670;42.720;23.336;2023-04-16T03:34:25;11.30;;;5.23;;
5295;SDS011;2670;42.720;23.336;2023-04-16T03:36:52;15.03;;;4.60;;
5295;SDS011;2670;42.720;23.336;2023-04-16T03:39:20;7.40;;;4.70;;
5295;SDS011;2670;42.720;23.336;2023-04-16T03:41:46;5.77;;;3.47;;
5295;SDS011;2670;42.720;23.336;2023-04-16T03:44:13;5.17;;;2.70;;
5295;SDS011;2670;42.720;23.336;2023-04-16T03:46:40;6.70;;;3.37;;
5295;SDS011;2670;42.720;23.336;2023-04-16T03:49:06;10.03;;;3.83;;
5295;SDS011;2670;42.720;23.336;2023-04-16T03:51:33;6.70;;;3.50;;
5295;SDS011;2670;42.720;23.336;2023-04-16T03:54:00;6.93;;;3.00;;
5295;SDS011;2670;42.720;23.336;2023-04-16T03:56:28;4.17;;;2.80;;
5295;SDS011;2670;42.720;23.336;2023-04-16T03:58:55;9.23;;;3.30;;
5295;SDS011;2670;42.720;23.336;2023-04-16T04:01:21;9.37;;;2.70;;
5295;SDS011;2670;42.720;23.336;2023-04-16T04:03:48;5.77;;;2.50;;
5295;SDS011;2670;42.720;23.336;2023-04-16T04:06:15;5.30;;;2.47;;
5295;SDS011;2670;42.720;23.336;2023-04-16T04:08:42;4.63;;;2.43;;
5295;SDS011;2670;42.720;23.336;2023-04-16T04:11:08;4.30;;;2.50;;
5295;SDS011;2670;42.720;23.336;2023-04-16T04:13:37;9.20;;;2.90;;
5295;SDS011;2670;42.720;23.336;2023-04-16T04:16:04;7.53;;;4.10;;
5295;SDS011;2670;42.720;23.336;2023-04-16T04:18:31;7.23;;;3.07;;
5295;SDS011;2670;42.720;23.336;2023-04-16T04:20:57;9.00;;;2.90;;
5295;SDS011;2670;42.720;23.336;2023-04-16T04:23:24;10.70;;;4.20;;
5295;SDS011;2670;42.720;23.336;2023-04-16T04:25:51;12.53;;;3.80;;
5295;SDS011;2670;42.720;23.336;2023-04-16T04:28:18;6.53;;;2.93;;
5295;SDS011;2670;42.720;23.336;2023-04-16T04:30:46;5.30;;;2.60;;
5295;SDS011;2670;42.720;23.336;2023-04-16T04:33:12;11.67;;;3.17;;
5295;SDS011;2670;42.720;23.336;2023-04-16T04:35:39;6.17;;;2.83;;
5295;SDS011;2670;42.720;23.336;2023-04-16T04:38:06;6.37;;;2.43;;
5295;SDS011;2670;42.720;23.336;2023-04-16T04:40:32;4.73;;;2.77;;
5295;SDS011;2670;42.720;23.336;2023-04-16T04:42:59;6.80;;;2.87;;
5295;SDS011;2670;42.720;23.336;2023-04-16T04:45:26;6.20;;;2.83;;
5295;SDS011;2670;42.720;23.336;2023-04-16T04:47:54;5.80;;;3.60;;
5295;SDS011;2670;42.720;23.336;2023-04-16T04:50:21;9.60;;;5.63;;
5295;SDS011;2670;42.720;23.336;2023-04-16T04:52:47;7.93;;;4.30;;
5295;SDS011;2670;42.720;23.336;2023-04-16T04:55:14;11.70;;;4.10;;
5295;SDS011;2670;42.720;23.336;2023-04-16T04:57:41;7.20;;;3.50;;
5295;SDS011;2670;42.720;23.336;2023-04-16T05:00:08;11.93;;;2.97;;
5295;SDS011;2670;42.720;23.336;2023-04-16T05:02:35;8.10;;;3.40;;
5295;SDS011;2670;42.720;23.336;2023-04-16T05:05:04;4.13;;;2.43;;
5295;SDS011;2670;42.720;23.336;2023-04-16T05:07:31;5.00;;;2.70;;
5295;SDS011;2670;42.720;23.336;2023-04-16T05:09:58;6.10;;;3.47;;
5295;SDS011;2670;42.720;23.336;2023-04-16T05:12:25;10.63;;;3.50;;
5295;SDS011;2670;42.720;23.336;2023-04-16T05:14:51;7.37;;;3.20;;
5295;SDS011;2670;42.720;23.336;2023-04-16T05:17:18;8.10;;;3.57;;
5295;SDS011;2670;42.720;23.336;2023-04-16T05:19:45;6.63;;;4.10;;
5295;SDS011;2670;42.720;23.336;2023-04-16T05:22:13;9.27;;;5.00;;
5295;SDS011;2670;42.720;23.336;2023-04-16T05:24:42;21.80;;;5.50;;
5295;SDS011;2670;42.720;23.336;2023-04-16T05:27:09;10.30;;;3.50;;
5295;SDS011;2670;42.720;23.336;2023-04-16T05:29:36;6.87;;;3.70;;
5295;SDS011;2670;42.720;23.336;2023-04-16T05:32:03;8.87;;;2.60;;
5295;SDS011;2670;42.720;23.336;2023-04-16T05:34:30;12.87;;;3.20;;
5295;SDS011;2670;42.720;23.336;2023-04-16T05:36:56;7.07;;;2.53;;
5295;SDS011;2670;42.720;23.336;2023-04-16T05:39:24;3.73;;;2.80;;
5295;SDS011;2670;42.720;23.336;2023-04-16T05:41:51;6.50;;;2.30;;
5295;SDS011;2670;42.720;23.336;2023-04-16T05:44:18;7.63;;;2.90;;
5295;SDS011;2670;42.720;23.336;2023-04-16T05:46:45;10.57;;;2.80;;
5295;SDS011;2670;42.720;23.336;2023-04-16T05:49:11;3.47;;;2.43;;
5295;SDS011;2670;42.720;23.336;2023-04-16T05:51:38;10.50;;;2.63;;
5295;SDS011;2670;42.720;23.336;2023-04-16T05:54:05;3.67;;;2.57;;
5295;SDS011;2670;42.720;23.336;2023-04-16T05:56:33;6.23;;;2.80;;
5295;SDS011;2670;42.720;23.336;2023-04-16T05:58:59;9.77;;;3.43;;
5295;SDS011;2670;42.720;23.336;2023-04-16T06:01:26;7.13;;;3.57;;
5295;SDS011;2670;42.720;23.336;2023-04-16T06:03:53;5.37;;;3.00;;
5295;SDS011;2670;42.720;23.336;2023-04-16T06:06:19;10.77;;;3.60;;
5295;SDS011;2670;42.720;23.336;2023-04-16T06:08:46;8.33;;;3.87;;
5295;SDS011;2670;42.720;23.336;2023-04-16T06:11:13;14.33;;;3.40;;
5295;SDS011;2670;42.720;23.336;2023-04-16T06:13:41;7.60;;;2.90;;
5295;SDS011;2670;42.720;23.336;2023-04-16T06:16:08;8.57;;;3.83;;
5295;SDS011;2670;42.720;23.336;2023-04-16T06:18:37;17.83;;;4.30;;
5295;SDS011;2670;42.720;23.336;2023-04-16T06:21:04;10.40;;;4.93;;
5295;SDS011;2670;42.720;23.336;2023-04-16T06:23:31;8.97;;;4.67;;
5295;SDS011;2670;42.720;23.336;2023-04-16T06:25:57;7.23;;;4.57;;
5295;SDS011;2670;42.720;23.336;2023-04-16T06:28:24;9.43;;;4.43;;
5295;SDS011;2670;42.720;23.336;2023-04-16T06:30:52;11.87;;;5.80;;
5295;SDS011;2670;42.720;23.336;2023-04-16T06:33:19;8.03;;;4.47;;
5295;SDS011;2670;42.720;23.336;2023-04-16T06:35:46;12.50;;;4.07;;
5295;SDS011;2670;42.720;23.336;2023-04-16T06:38:12;7.40;;;4.53;;
5295;SDS011;2670;42.720;23.336;2023-04-16T06:40:39;19.10;;;5.67;;
5295;SDS011;2670;42.720;23.336;2023-04-16T06:43:06;9.40;;;4.33;;
5295;SDS011;2670;42.720;23.336;2023-04-16T06:45:33;18.57;;;6.70;;
5295;SDS011;2670;42.720;23.336;2023-04-16T06:48:01;8.80;;;4.50;;
5295;SDS011;2670;42.720;23.336;2023-04-16T06:50:29;10.30;;;3.63;;
5295;SDS011;2670;42.720;23.336;2023-04-16T06:52:55;13.57;;;4.33;;
5295;SDS011;2670;42.720;23.336;2023-04-16T06:55:22;10.60;;;4.03;;
5295;SDS011;2670;42.720;23.336;2023-04-16T06:57:49;5.77;;;3.63;;
5295;SDS011;2670;42.720;23.336;2023-04-16T07:00:16;6.90;;;3.30;;
5295;SDS011;2670;42.720;23.336;2023-04-16T07:02:43;9.47;;;3.40;;
5295;SDS011;2670;42.720;23.336;2023-04-16T07:05:11;10.60;;;5.60;;
5295;SDS011;2670;42.720;23.336;2023-04-16T07:07:38;8.13;;;5.40;;
5295;SDS011;2670;42.720;23.336;2023-04-16T07:10:05;9.93;;;5.40;;
5295;SDS011;2670;42.720;23.336;2023-04-16T07:12:32;10.83;;;5.40;;
5295;SDS011;2670;42.720;23.336;2023-04-16T07:14:59;5.77;;;3.10;;
5295;SDS011;2670;42.720;23.336;2023-04-16T07:17:26;7.50;;;3.10;;
5295;SDS011;2670;42.720;23.336;2023-04-16T07:19:53;14.97;;;3.67;;
5295;SDS011;2670;42.720;23.336;2023-04-16T07:22:21;4.80;;;3.37;;
5295;SDS011;2670;42.720;23.336;2023-04-16T07:24:47;5.10;;;3.60;;
5295;SDS011;2670;42.720;23.336;2023-04-16T07:27:14;4.33;;;3.07;;
5295;SDS011;2670;42.720;23.336;2023-04-16T07:29:41;5.17;;;3.17;;
5295;SDS011;2670;42.720;23.336;2023-04-16T07:32:10;7.53;;;4.07;;
5295;SDS011;2670;42.720;23.336;2023-04-16T07:34:36;6.13;;;3.63;;
5295;SDS011;2670;42.720;23.336;2023-04-16T07:37:03;17.03;;;5.20;;
5295;SDS011;2670;42.720;23.336;2023-04-16T07:39:31;6.87;;;4.10;;
5295;SDS011;2670;42.720;23.336;2023-04-16T07:41:58;9.40;;;4.57;;
5295;SDS011;2670;42.720;23.336;2023-04-16T07:44:25;9.57;;;3.90;;
5295;SDS011;2670;42.720;23.336;2023-04-16T07:46:51;10.17;;;4.47;;
5295;SDS011;2670;42.720;23.336;2023-04-16T07:49:18;7.80;;;3.53;;
5295;SDS011;2670;42.720;23.336;2023-04-16T07:51:45;15.23;;;5.87;;
5295;SDS011;2670;42.720;23.336;2023-04-16T07:54:12;19.10;;;5.57;;
5295;SDS011;2670;42.720;23.336;2023-04-16T07:56:40;8.27;;;4.20;;
5295;SDS011;2670;42.720;23.336;2023-04-16T07:59:07;11.37;;;3.90;;
5295;SDS011;2670;42.720;23.336;2023-04-16T08:01:34;10.90;;;4.43;;
5295;SDS011;2670;42.720;23.336;2023-04-16T08:04:00;11.10;;;4.47;;
5295;SDS011;2670;42.720;23.336;2023-04-16T08:06:27;5.43;;;3.13;;
5295;SDS011;2670;42.720;23.336;2023-04-16T08:08:54;8.20;;;3.90;;
5295;SDS011;2670;42.720;23.336;2023-04-16T08:11:21;6.23;;;3.30;;
5295;SDS011;2670;42.720;23.336;2023-04-16T08:13:50;7.03;;;3.40;;
5295;SDS011;2670;42.720;23.336;2023-04-16T08:16:17;8.67;;;3.33;;
5295;SDS011;2670;42.720;23.336;2023-04-16T08:18:43;5.03;;;3.00;;
5295;SDS011;2670;42.720;23.336;2023-04-16T08:21:10;6.90;;;2.90;;
5295;SDS011;2670;42.720;23.336;2023-04-16T08:23:37;7.83;;;3.03;;
5295;SDS011;2670;42.720;23.336;2023-04-16T08:26:03;8.30;;;3.00;;
5295;SDS011;2670;42.720;23.336;2023-04-16T08:28:30;3.83;;;2.50;;
5295;SDS011;2670;42.720;23.336;2023-04-16T08:30:59;9.43;;;2.93;;
5295;SDS011;2670;42.720;23.336;2023-04-16T08:33:25;14.20;;;3.63;;
5295;SDS011;2670;42.720;23.336;2023-04-16T08:35:52;6.37;;;3.47;;
5295;SDS011;2670;42.720;23.336;2023-04-16T08:38:19;9.20;;;4.13;;
5295;SDS011;2670;42.720;23.336;2023-04-16T08:40:45;4.70;;;2.30;;
5295;SDS011;2670;42.720;23.336;2023-04-16T08:43:13;6.53;;;2.50;;
5295;SDS011;2670;42.720;23.336;2023-04-16T08:45:43;12.10;;;3.30;;
5295;SDS011;2670;42.720;23.336;2023-04-16T08:48:14;9.63;;;3.00;;
5295;SDS011;2670;42.720;23.336;2023-04-16T08:50:44;7.90;;;2.70;;
5295;SDS011;2670;42.720;23.336;2023-04-16T08:53:14;9.20;;;2.47;;
5295;SDS011;2670;42.720;23.336;2023-04-16T08:55:48;10.90;;;3.00;;
5295;SDS011;2670;42.720;23.336;2023-04-16T08:58:21;6.90;;;2.73;;
5295;SDS011;2670;42.720;23.336;2023-04-16T09:00:48;5.43;;;2.37;;
5295;SDS011;2670;42.720;23.336;2023-04-16T09:03:16;7.30;;;2.60;;
5295;SDS011;2670;42.720;23.336;2023-04-16T09:05:45;7.23;;;2.63;;
5295;SDS011;2670;42.720;23.336;2023-04-16T09:08:13;4.20;;;3.07;;
5295;SDS011;2670;42.720;23.336;2023-04-16T09:10:39;3.77;;;1.97;;
5295;SDS011;2670;42.720;23.336;2023-04-16T09:13:06;4.70;;;2.57;;
5295;SDS011;2670;42.720;23.336;2023-04-16T09:15:37;7.30;;;2.43;;
5295;SDS011;2670;42.720;23.336;2023-04-16T09:18:05;4.77;;;2.00;;
5295;SDS011;2670;42.720;23.336;2023-04-16T09:20:34;6.60;;;3.00;;
5295;SDS011;2670;42.720;23.336;2023-04-16T09:23:00;7.20;;;2.30;;
5295;SDS011;2670;42.720;23.336;2023-04-16T09:25:27;10.80;;;2.50;;
5295;SDS011;2670;42.720;23.336;2023-04-16T09:27:58;3.57;;;2.80;;
5295;SDS011;2670;42.720;23.336;2023-04-16T09:30:25;5.33;;;2.60;;
5295;SDS011;2670;42.720;23.336;2023-04-16T09:35:45;3.70;;;2.37;;
5295;SDS011;2670;42.720;23.336;2023-04-16T09:38:13;6.43;;;2.57;;
5295;SDS011;2670;42.720;23.336;2023-04-16T09:40:40;6.90;;;2.40;;
5295;SDS011;2670;42.720;23.336;2023-04-16T09:43:10;8.73;;;4.20;;
5295;SDS011;2670;42.720;23.336;2023-04-16T09:45:47;9.60;;;3.17;;
5295;SDS011;2670;42.720;23.336;2023-04-16T09:48:16;3.43;;;1.93;;
5295;SDS011;2670;42.720;23.336;2023-04-16T09:50:55;7.00;;;3.00;;
5295;SDS011;2670;42.720;23.336;2023-04-16T09:53:23;5.00;;;2.30;;
5295;SDS011;2670;42.720;23.336;2023-04-16T09:55:50;5.50;;;2.30;;
5295;SDS011;2670;42.720;23.336;2023-04-16T09:58:17;2.40;;;1.97;;
5295;SDS011;2670;42.720;23.336;2023-04-16T10:00:44;4.47;;;3.37;;
5295;SDS011;2670;42.720;23.336;2023-04-16T10:03:11;9.50;;;2.83;;
5295;SDS011;2670;42.720;23.336;2023-04-16T10:05:38;6.23;;;2.67;;
5295;SDS011;2670;42.720;23.336;2023-04-16T10:08:16;5.33;;;2.60;;
5295;SDS011;2670;42.720;23.336;2023-04-16T10:10:43;11.00;;;3.00;;
5295;SDS011;2670;42.720;23.336;2023-04-16T10:13:10;4.40;;;2.70;;
5295;SDS011;2670;42.720;23.336;2023-04-16T10:15:41;7.13;;;2.30;;
5295;SDS011;2670;42.720;23.336;2023-04-16T10:18:08;5.23;;;2.83;;
5295;SDS011;2670;42.720;23.336;2023-04-16T10:20:35;5.43;;;2.40;;
5295;SDS011;2670;42.720;23.336;2023-04-16T10:23:03;5.53;;;2.33;;
5295;SDS011;2670;42.720;23.336;2023-04-16T10:25:31;6.10;;;2.50;;
5295;SDS011;2670;42.720;23.336;2023-04-16T10:27:58;9.43;;;2.50;;
5295;SDS011;2670;42.720;23.336;2023-04-16T10:30:26;6.00;;;2.60;;
5295;SDS011;2670;42.720;23.336;2023-04-16T10:32:53;6.20;;;3.00;;
5295;SDS011;2670;42.720;23.336;2023-04-16T10:35:20;7.17;;;2.60;;
5295;SDS011;2670;42.720;23.336;2023-04-16T10:37:47;10.17;;;2.80;;
5295;SDS011;2670;42.720;23.336;2023-04-16T10:40:22;21.70;;;3.00;;
5295;SDS011;2670;42.720;23.336;2023-04-16T10:42:55;9.70;;;2.43;;
5295;SDS011;2670;42.720;23.336;2023-04-16T10:45:25;5.53;;;2.37;;
5295;SDS011;2670;42.720;23.336;2023-04-16T10:47:56;4.30;;;2.70;;
5295;SDS011;2670;42.720;23.336;2023-04-16T10:50:23;3.10;;;1.87;;
5295;SDS011;2670;42.720;23.336;2023-04-16T10:55:55;3.80;;;2.30;;
5295;SDS011;2670;42.720;23.336;2023-04-16T10:58:27;6.20;;;2.80;;
5295;SDS011;2670;42.720;23.336;2023-04-16T11:00:54;8.23;;;2.50;;
5295;SDS011;2670;42.720;23.336;2023-04-16T11:03:24;5.13;;;2.90;;
5295;SDS011;2670;42.720;23.336;2023-04-16T11:06:08;4.30;;;2.23;;
5295;SDS011;2670;42.720;23.336;2023-04-16T11:08:36;6.13;;;2.00;;
5295;SDS011;2670;42.720;23.336;2023-04-16T11:11:04;8.57;;;2.70;;
5295;SDS011;2670;42.720;23.336;2023-04-16T11:13:32;4.30;;;1.97;;
5295;SDS011;2670;42.720;23.336;2023-04-16T11:16:01;5.87;;;2.03;;
5295;SDS011;2670;42.720;23.336;2023-04-16T11:18:28;7.73;;;3.33;;
5295;SDS011;2670;42.720;23.336;2023-04-16T11:20:55;3.93;;;1.90;;
5295;SDS011;2670;42.720;23.336;2023-04-16T11:23:22;6.47;;;2.27;;
5295;SDS011;2670;42.720;23.336;2023-04-16T11:25:48;8.20;;;1.93;;
5295;SDS011;2670;42.720;23.336;2023-04-16T11:28:19;4.60;;;2.30;;
5295;SDS011;2670;42.720;23.336;2023-04-16T11:30:48;3.73;;;2.03;;
5295;SDS011;2670;42.720;23.336;2023-04-16T11:33:14;4.20;;;1.90;;
5295;SDS011;2670;42.720;23.336;2023-04-16T11:35:41;3.23;;;1.60;;
5295;SDS011;2670;42.720;23.336;2023-04-16T11:38:09;7.43;;;1.93;;
5295;SDS011;2670;42.720;23.336;2023-04-16T11:40:36;2.80;;;1.70;;
5295;SDS011;2670;42.720;23.336;2023-04-16T11:43:03;2.37;;;1.80;;
5295;SDS011;2670;42.720;23.336;2023-04-16T11:45:40;10.13;;;2.47;;
5295;SDS011;2670;42.720;23.336;2023-04-16T11:48:24;6.07;;;2.20;;
5295;SDS011;2670;42.720;23.336;2023-04-16T11:51:10;2.40;;;1.67;;
5295;SDS011;2670;42.720;23.336;2023-04-16T11:53:43;6.53;;;2.40;;
5295;SDS011;2670;42.720;23.336;2023-04-16T11:56:11;3.77;;;1.90;;
5295;SDS011;2670;42.720;23.336;2023-04-16T11:58:38;5.17;;;2.00;;
5295;SDS011;2670;42.720;23.336;2023-04-16T12:01:06;3.63;;;1.90;;
5295;SDS011;2670;42.720;23.336;2023-04-16T12:03:37;3.67;;;1.90;;
5295;SDS011;2670;42.720;23.336;2023-04-16T12:06:08;4.73;;;2.13;;
5295;SDS011;2670;42.720;23.336;2023-04-16T12:08:34;4.67;;;2.13;;
5295;SDS011;2670;42.720;23.336;2023-04-16T12:11:01;2.13;;;1.40;;
5295;SDS011;2670;42.720;23.336;2023-04-16T12:13:28;5.17;;;2.27;;
5295;SDS011;2670;42.720;23.336;2023-04-16T12:15:55;2.23;;;1.80;;
5295;SDS011;2670;42.720;23.336;2023-04-16T12:18:24;6.10;;;1.60;;
5295;SDS011;2670;42.720;23.336;2023-04-16T12:20:51;5.73;;;1.67;;
5295;SDS011;2670;42.720;23.336;2023-04-16T12:23:21;3.70;;;1.67;;
5295;SDS011;2670;42.720;23.336;2023-04-16T12:25:49;4.73;;;1.83;;
5295;SDS011;2670;42.720;23.336;2023-04-16T12:28:25;5.40;;;1.70;;
5295;SDS011;2670;42.720;23.336;2023-04-16T12:30:52;5.37;;;2.00;;
5295;SDS011;2670;42.720;23.336;2023-04-16T12:33:19;2.90;;;1.93;;
5295;SDS011;2670;42.720;23.336;2023-04-16T12:35:47;4.27;;;2.00;;
5295;SDS011;2670;42.720;23.336;2023-04-16T12:38:15;5.87;;;2.20;;
5295;SDS011;2670;42.720;23.336;2023-04-16T12:40:42;3.27;;;2.00;;
5295;SDS011;2670;42.720;23.336;2023-04-16T12:43:08;2.63;;;1.93;;
5295;SDS011;2670;42.720;23.336;2023-04-16T12:45:35;8.20;;;2.10;;
5295;SDS011;2670;42.720;23.336;2023-04-16T12:48:03;4.93;;;1.80;;
5295;SDS011;2670;42.720;23.336;2023-04-16T12:50:31;2.70;;;2.10;;
5295;SDS011;2670;42.720;23.336;2023-04-16T12:52:59;4.87;;;2.33;;
5295;SDS011;2670;42.720;23.336;2023-04-16T12:55:26;5.57;;;2.00;;
5295;SDS011;2670;42.720;23.336;2023-04-16T12:57:53;4.90;;;1.80;;
5295;SDS011;2670;42.720;23.336;2023-04-16T13:00:19;2.90;;;1.63;;
5295;SDS011;2670;42.720;23.336;2023-04-16T13:02:46;7.00;;;1.97;;
5295;SDS011;2670;42.720;23.336;2023-04-16T13:05:13;2.50;;;1.70;;
5295;SDS011;2670;42.720;23.336;2023-04-16T13:07:43;5.07;;;2.43;;
5295;SDS011;2670;42.720;23.336;2023-04-16T13:10:11;9.23;;;1.90;;
5295;SDS011;2670;42.720;23.336;2023-04-16T13:12:38;6.35;;;1.60;;
5295;SDS011;2670;42.720;23.336;2023-04-16T13:15:05;6.73;;;2.50;;
5295;SDS011;2670;42.720;23.336;2023-04-16T13:17:32;3.73;;;1.90;;
5295;SDS011;2670;42.720;23.336;2023-04-16T13:19:59;5.80;;;2.47;;
5295;SDS011;2670;42.720;23.336;2023-04-16T13:22:26;7.50;;;2.53;;
5295;SDS011;2670;42.720;23.336;2023-04-16T13:24:53;7.07;;;3.57;;
5295;SDS011;2670;42.720;23.336;2023-04-16T13:27:22;13.33;;;7.57;;
5295;SDS011;2670;42.720;23.336;2023-04-16T13:29:48;12.87;;;7.30;;
5295;SDS011;2670;42.720;23.336;2023-04-16T13:32:15;11.93;;;7.00;;
5295;SDS011;2670;42.720;23.336;2023-04-16T13:34:43;7.67;;;3.50;;
5295;SDS011;2670;42.720;23.336;2023-04-16T13:37:09;21.63;;;6.90;;
5295;SDS011;2670;42.720;23.336;2023-04-16T13:39:36;9.70;;;6.20;;
5295;SDS011;2670;42.720;23.336;2023-04-16T13:42:03;10.77;;;5.20;;
5295;SDS011;2670;42.720;23.336;2023-04-16T13:44:31;9.27;;;4.13;;
5295;SDS011;2670;42.720;23.336;2023-04-16T13:46:58;17.67;;;5.37;;
5295;SDS011;2670;42.720;23.336;2023-04-16T13:49:24;12.90;;;7.37;;
5295;SDS011;2670;42.720;23.336;2023-04-16T13:51:51;24.07;;;11.40;;
5295;SDS011;2670;42.720;23.336;2023-04-16T13:54:18;6.00;;;3.37;;
5295;SDS011;2670;42.720;23.336;2023-04-16T13:56:44;7.30;;;2.60;;
5295;SDS011;2670;42.720;23.336;2023-04-16T13:59:11;17.80;;;10.20;;
5295;SDS011;2670;42.720;23.336;2023-04-16T14:01:41;9.37;;;6.07;;
5295;SDS011;2670;42.720;23.336;2023-04-16T14:04:07;5.87;;;3.73;;
5295;SDS011;2670;42.720;23.336;2023-04-16T14:06:34;8.73;;;3.30;;
5295;SDS011;2670;42.720;23.336;2023-04-16T14:09:01;8.10;;;3.27;;
5295;SDS011;2670;42.720;23.336;2023-04-16T14:11:28;9.53;;;4.07;;
5295;SDS011;2670;42.720;23.336;2023-04-16T14:13:55;8.23;;;4.17;;
5295;SDS011;2670;42.720;23.336;2023-04-16T14:16:22;7.03;;;3.33;;
5295;SDS011;2670;42.720;23.336;2023-04-16T14:18:50;5.60;;;3.60;;
5295;SDS011;2670;42.720;23.336;2023-04-16T14:21:17;8.53;;;3.10;;
5295;SDS011;2670;42.720;23.336;2023-04-16T14:23:44;5.50;;;3.13;;
5295;SDS011;2670;42.720;23.336;2023-04-16T14:26:10;8.03;;;3.30;;
5295;SDS011;2670;42.720;23.336;2023-04-16T14:28:37;5.50;;;2.93;;
5295;SDS011;2670;42.720;23.336;2023-04-16T14:31:05;5.63;;;3.53;;
5295;SDS011;2670;42.720;23.336;2023-04-16T14:33:32;10.30;;;5.00;;
5295;SDS011;2670;42.720;23.336;2023-04-16T14:36:00;9.13;;;5.57;;
5295;SDS011;2670;42.720;23.336;2023-04-16T14:38:26;8.50;;;4.50;;
5295;SDS011;2670;42.720;23.336;2023-04-16T14:40:53;7.60;;;3.33;;
5295;SDS011;2670;42.720;23.336;2023-04-16T14:43:20;11.70;;;4.20;;
5295;SDS011;2670;42.720;23.336;2023-04-16T14:45:47;12.43;;;4.47;;
5295;SDS011;2670;42.720;23.336;2023-04-16T14:48:13;4.30;;;3.00;;
5295;SDS011;2670;42.720;23.336;2023-04-16T14:50:40;5.63;;;3.60;;
5295;SDS011;2670;42.720;23.336;2023-04-16T14:53:09;3.50;;;3.00;;
5295;SDS011;2670;42.720;23.336;2023-04-16T14:55:36;6.47;;;3.27;;
5295;SDS011;2670;42.720;23.336;2023-04-16T14:58:03;6.47;;;3.90;;
5295;SDS011;2670;42.720;23.336;2023-04-16T15:00:30;5.10;;;3.47;;
5295;SDS011;2670;42.720;23.336;2023-04-16T15:02:57;12.57;;;3.97;;